createdAt,value
2023-05-02T00:00:00.905Z,5.65
2023-05-02T00:05:05.993Z,4.93
2023-05-02T00:10:17.079Z,6.95
2023-05-02T00:15:21.896Z,1.38
2023-05-02T00:20:26.578Z,4.07
2023-05-02T00:25:32.649Z,3.67
2023-05-02T00:30:41.102Z,5.95
2023-05-02T00:35:44.602Z,2.85
2023-05-02T00:40:51.593Z,3.25
2023-05-02T00:45:58.945Z,2.47
2023-05-02T00:51:06.070Z,3.85
2023-05-02T00:56:15.179Z,5.75
2023-05-02T01:01:29.910Z,3.13
2023-05-02T01:06:42.029Z,4.43
2023-05-02T01:11:51.503Z,5.47
2023-05-02T01:16:58.522Z,5.25
2023-05-02T01:22:04.912Z,1.25
2023-05-02T01:27:33.593Z,2.28
2023-05-02T01:32:54.635Z,4.30
2023-05-02T01:38:20.069Z,5.63
2023-05-02T01:43:39.232Z,2.67
2023-05-02T01:48:52.481Z,3.80
2023-05-02T01:59:27.451Z,6.10
2023-05-02T02:04:48.359Z,4.30
2023-05-02T02:09:59.406Z,8.02
2023-05-02T02:15:05.204Z,2.60
2023-05-02T02:20:12.201Z,3.50
2023-05-02T02:25:18.218Z,5.63
2023-05-02T02:30:27.449Z,5.30
2023-05-02T02:35:46.511Z,4.45
2023-05-02T02:40:59.151Z,3.10
2023-05-02T02:46:18.289Z,4.78
2023-05-02T02:51:31.933Z,4.82
2023-05-02T02:56:44.697Z,3.10
2023-05-02T03:02:13.619Z,2.25
2023-05-02T03:07:24.016Z,3.47
2023-05-02T03:12:30.505Z,3.22
2023-05-02T03:17:48.527Z,3.92
2023-05-02T03:22:54.619Z,2.90
2023-05-02T03:28:16.293Z,3.05
2023-05-02T03:33:21.143Z,4.38
2023-05-02T03:38:27.006Z,4.40
2023-05-02T03:43:41.578Z,2.30
2023-05-02T03:48:48.337Z,3.95
2023-05-02T03:53:55.739Z,5.72
2023-05-02T03:59:03.562Z,4.90
2023-05-02T04:04:28.937Z,5.40
2023-05-02T04:09:37.804Z,5.13
2023-05-02T04:14:43.643Z,3.17
2023-05-02T04:19:55.810Z,6.07
2023-05-02T04:25:06.787Z,6.18
2023-05-02T04:30:21.363Z,4.85
2023-05-02T04:35:33.268Z,6.07
2023-05-02T04:40:51.564Z,3.75
2023-05-02T04:45:55.212Z,5.57
2023-05-02T04:50:59.700Z,7.90
2023-05-02T04:56:25.954Z,4.53
2023-05-02T05:01:30.224Z,4.35
2023-05-02T05:06:37.482Z,4.32
2023-05-02T05:11:47.176Z,5.57
2023-05-02T05:16:52.673Z,4.93
2023-05-02T05:21:57.590Z,4.15
2023-05-02T05:27:04.215Z,2.90
2023-05-02T05:32:10.626Z,3.17
2023-05-02T05:37:19.159Z,7.20
2023-05-02T05:42:26.869Z,4.95
2023-05-02T05:47:32.549Z,5.43
2023-05-02T05:52:42.224Z,2.05
2023-05-02T05:57:50.457Z,4.00
2023-05-02T06:03:00.951Z,4.75
2023-05-02T06:08:05.276Z,4.88
2023-05-02T06:13:12.847Z,4.30
2023-05-02T06:18:17.338Z,3.78
2023-05-02T06:28:37.611Z,5.35
2023-05-02T06:33:43.926Z,4.30
2023-05-02T06:38:49.327Z,6.63
2023-05-02T06:44:00.407Z,5.38
2023-05-02T06:49:04.756Z,6.82
2023-05-02T06:54:11.430Z,6.25
2023-05-02T06:59:41.830Z,7.45
2023-05-02T07:04:49.062Z,5.65
2023-05-02T07:09:53.445Z,6.40
2023-05-02T07:15:02.479Z,6.18
2023-05-02T07:20:09.601Z,2.42
2023-05-02T07:25:18.952Z,8.05
2023-05-02T07:30:26.813Z,6.60
2023-05-02T07:35:38.814Z,9.38
2023-05-02T07:40:49.898Z,8.00
2023-05-02T07:45:54.772Z,10.63
2023-05-02T07:51:13.584Z,10.50
2023-05-02T07:56:18.163Z,9.35
2023-05-02T08:01:22.001Z,7.72
2023-05-02T08:06:36.793Z,6.07
2023-05-02T08:16:47.853Z,6.60
2023-05-02T08:22:01.485Z,6.90
2023-05-02T08:27:08.068Z,7.60
2023-05-02T08:32:12.465Z,6.78
2023-05-02T08:37:21.356Z,7.90
2023-05-02T08:42:27.431Z,6.97
2023-05-02T08:47:45.627Z,6.68
2023-05-02T08:52:51.907Z,8.32
2023-05-02T08:57:59.298Z,5.75
2023-05-02T09:03:11.935Z,6.88
2023-05-02T09:08:24.096Z,5.75
2023-05-02T09:13:37.903Z,7.57
2023-05-02T09:18:51.977Z,10.02
2023-05-02T09:24:04.327Z,7.72
2023-05-02T09:29:14.932Z,7.85
2023-05-02T09:34:28.356Z,7.10
2023-05-02T09:39:40.479Z,8.50
2023-05-02T09:44:48.054Z,9.63
2023-05-02T09:50:02.037Z,8.77
2023-05-02T09:55:23.441Z,9.48
2023-05-02T10:00:43.750Z,9.13
2023-05-02T10:05:48.487Z,8.10
2023-05-02T10:10:59.977Z,8.13
2023-05-02T10:16:15.835Z,6.13
2023-05-02T10:21:23.658Z,9.85
2023-05-02T10:26:28.825Z,9.38
2023-05-02T10:31:53.116Z,7.63
2023-05-02T10:37:02.364Z,8.82
2023-05-02T10:42:08.909Z,8.40
2023-05-02T10:47:34.993Z,7.50
2023-05-02T10:52:43.916Z,7.65
2023-05-02T10:58:08.821Z,10.40
2023-05-02T11:03:21.967Z,11.07
2023-05-02T11:08:37.562Z,13.73
2023-05-02T11:13:50.554Z,12.23
2023-05-02T11:19:01.332Z,10.75
2023-05-02T11:24:24.248Z,12.15
2023-05-02T11:34:56.370Z,14.85
2023-05-02T11:40:16.132Z,12.50
2023-05-02T11:45:34.254Z,12.65
2023-05-02T11:50:50.060Z,16.08
2023-05-02T11:55:55.854Z,13.40
2023-05-02T12:01:05.435Z,4.93
2023-05-02T12:06:19.868Z,12.02
2023-05-02T12:11:32.117Z,10.48
2023-05-02T12:16:42.517Z,14.55
2023-05-02T12:21:48.166Z,12.82
2023-05-02T12:27:12.139Z,13.50
2023-05-02T12:32:19.112Z,13.05
2023-05-02T12:37:30.635Z,14.25
2023-05-02T12:42:39.722Z,12.65
2023-05-02T12:47:48.524Z,11.30
2023-05-02T12:52:59.890Z,9.27
2023-05-02T12:58:07.299Z,9.15
2023-05-02T13:03:13.099Z,9.32
2023-05-02T13:08:18.656Z,10.18
2023-05-02T13:13:25.428Z,10.23
2023-05-02T13:18:30.271Z,7.82
2023-05-02T13:23:42.687Z,12.85
2023-05-02T13:28:54.065Z,9.00
2023-05-02T13:33:58.608Z,9.82
2023-05-02T13:39:13.955Z,8.13
2023-05-02T13:44:20.496Z,5.50
2023-05-02T13:49:29.201Z,6.25
2023-05-02T13:54:35.636Z,7.25
2023-05-02T13:59:40.254Z,8.75
2023-05-02T14:04:49.510Z,5.32
2023-05-02T14:09:58.938Z,4.70
2023-05-02T14:15:11.451Z,5.60
2023-05-02T14:20:17.873Z,5.35
2023-05-02T14:25:41.096Z,6.43
2023-05-02T14:30:45.775Z,9.20
2023-05-02T14:35:51.343Z,8.25
2023-05-02T14:40:57.422Z,7.30
2023-05-02T14:46:05.340Z,7.45
2023-05-02T14:51:11.589Z,7.75
2023-05-02T14:56:20.260Z,5.40
2023-05-02T15:01:25.164Z,6.35
2023-05-02T15:06:35.896Z,3.72
2023-05-02T15:11:43.159Z,5.25
2023-05-02T15:16:49.227Z,6.20
2023-05-02T15:21:58.331Z,3.58
2023-05-02T15:27:20.551Z,2.90
2023-05-02T15:32:32.133Z,3.25
2023-05-02T15:37:37.799Z,1.83
2023-05-02T15:42:50.256Z,3.38
2023-05-02T15:48:01.374Z,3.15
2023-05-02T15:53:06.984Z,3.92
2023-05-02T15:58:16.322Z,4.57
2023-05-02T16:03:20.823Z,4.30
2023-05-02T16:08:26.013Z,2.88
2023-05-02T16:18:36.054Z,4.10
2023-05-02T16:23:52.734Z,5.90
2023-05-02T16:29:03.838Z,4.30
2023-05-02T16:34:36.450Z,8.48
2023-05-02T16:39:49.567Z,7.10
2023-05-02T16:44:58.766Z,7.13
2023-05-02T16:50:03.987Z,10.88
2023-05-02T16:55:18.685Z,11.25
2023-05-02T17:05:27.864Z,10.68
2023-05-02T17:16:01.039Z,10.07
2023-05-02T17:21:04.048Z,8.00
2023-05-02T17:26:14.482Z,6.20
2023-05-02T17:31:19.316Z,7.53
2023-05-02T17:36:21.841Z,9.65
2023-05-02T17:41:24.391Z,6.78
2023-05-02T17:46:28.340Z,10.63
2023-05-02T17:56:37.087Z,7.60
2023-05-02T18:07:07.855Z,5.70
2023-05-02T18:12:10.829Z,9.10
2023-05-02T18:17:20.533Z,6.10
2023-05-02T18:22:23.215Z,6.38
2023-05-02T18:27:26.021Z,5.32
2023-05-02T18:32:31.879Z,5.25
2023-05-02T18:37:35.611Z,5.15
2023-05-02T18:42:38.616Z,6.13
2023-05-02T18:47:42.920Z,1.45
2023-05-02T18:52:45.521Z,7.85
2023-05-02T18:57:48.551Z,6.78
2023-05-02T19:02:54.486Z,8.20
2023-05-02T19:07:57.157Z,8.30
2023-05-02T19:13:00.097Z,6.25
2023-05-02T19:18:04.314Z,8.68
2023-05-02T19:23:18.892Z,7.28
2023-05-02T19:28:22.917Z,10.73
2023-05-02T19:33:26.848Z,8.90
2023-05-02T19:38:29.778Z,10.57
2023-05-02T19:43:32.954Z,9.05
2023-05-02T19:48:37.016Z,9.60
2023-05-02T19:58:42.632Z,11.10
2023-05-02T20:04:05.092Z,9.70
2023-05-02T20:09:34.735Z,10.05
2023-05-02T20:14:44.246Z,9.90
2023-05-02T20:20:08.428Z,11.23
2023-05-02T20:25:37.116Z,12.95
2023-05-02T20:30:42.764Z,12.65
2023-05-02T20:36:00.020Z,15.63
2023-05-02T20:41:10.844Z,12.10
2023-05-02T20:46:16.671Z,14.93
2023-05-02T20:51:25.180Z,11.73
2023-05-02T20:56:30.380Z,13.80
2023-05-02T21:01:38.421Z,11.07
2023-05-02T21:07:06.731Z,15.35
2023-05-02T21:12:13.147Z,15.02
2023-05-02T21:17:17.133Z,13.60
2023-05-02T21:27:30.543Z,15.45
2023-05-02T21:32:34.114Z,16.05
2023-05-02T21:49:09.684Z,14.15
2023-05-02T21:54:23.473Z,13.85
2023-05-02T21:59:28.071Z,15.50
2023-05-02T22:04:48.593Z,12.63
2023-05-02T22:09:55.220Z,16.05
2023-05-02T22:14:58.664Z,16.98
2023-05-02T22:20:04.299Z,17.42
2023-05-02T22:25:22.771Z,15.20
2023-05-02T22:30:28.130Z,17.80
2023-05-02T22:35:31.145Z,15.25
2023-05-02T22:40:34.681Z,14.52
2023-05-02T22:45:42.418Z,14.30
2023-05-02T22:50:49.616Z,16.63
2023-05-02T22:55:55.025Z,15.25
2023-05-02T23:01:03.759Z,12.80
2023-05-02T23:06:08.190Z,14.63
2023-05-02T23:11:12.834Z,13.98
2023-05-02T23:21:32.504Z,12.25
2023-05-02T23:26:38.150Z,12.27
2023-05-02T23:31:41.865Z,15.40
2023-05-02T23:36:48.649Z,14.80
2023-05-02T23:41:58.458Z,14.93
2023-05-02T23:47:05.379Z,15.68
2023-05-02T23:52:10.927Z,14.57
2023-05-02T23:57:15.762Z,16.25
